Aurora, Missouri
Current Conditions -  °F | °C
As of 9:35 AM on Friday 24 Oct 2014 (Local Time) from KHFJ Reporting Station
Clear Clear  
Wind Chill: 59°   Ceiling: Unl
Heat Index: 59°   Visibility: 10mi
Dew Point: 54°   Wind: 13mph
Humidity: 82%   Direction: 220°SW
Pressure: 30.13"   Gusts: NA
Location:  36.97°N, 93.72°W
Report Text: KHFJ 241435Z AUTO 22011KT 10SM CLR 15/12 A3013 RMK AO2
Loading
Personal Weather Stations






























Interactive Weather Map
Tropical Storm Tracking
New forecast layout! Learn more

10-Day Weather Forecast

Advertisements
Track Severe Weather on mobile